Time;durP1;ratioP1;P1;durP2;ratioP2;P2;SDS_P1;SDS_P2;PMS_P1;PMS_P2;Temp;Humidity;BMP_temperature;BMP_pressure;BME280_temperature;BME280_humidity;BME280_pressure;Samples;Min_cycle;Max_cycle;Signal;HPM_P1;HPM_P2
2021/06/01 00:01:23;;;;;;;5.17;4.03;;;;;;;9.25;71.58;100202.36;1720512;81;21025;-69
2021/06/01 00:03:50;;;;;;;4.53;4.12;;;;;;;9.23;71.80;100201.65;1670663;84;21664;-70
2021/06/01 00:06:16;;;;;;;8.25;5.28;;;;;;;9.18;72.01;100205.48;1679615;83;21251;-71
2021/06/01 00:08:43;;;;;;;5.12;4.20;;;;;;;9.18;72.12;100209.92;1717698;81;20982;-71
2021/06/01 00:11:10;;;;;;;7.53;4.42;;;;;;;9.15;72.22;100193.00;1668884;84;22199;-69
2021/06/01 00:13:36;;;;;;;5.62;4.25;;;;;;;9.12;72.27;100201.16;1722513;83;21106;-69
2021/06/01 00:16:04;;;;;;;4.60;4.20;;;;;;;9.09;72.30;100204.87;1717571;81;21093;-71
2021/06/01 00:18:32;;;;;;;5.55;4.90;;;;;;;9.10;72.29;100203.91;1701492;83;21165;-69
2021/06/01 00:20:59;;;;;;;5.08;4.35;;;;;;;9.08;72.41;100205.83;1718267;83;21037;-70
2021/06/01 00:23:26;;;;;;;4.87;4.37;;;;;;;9.10;72.46;100209.66;1719270;82;22311;-69
2021/06/01 00:25:52;;;;;;;7.72;4.30;;;;;;;9.11;72.56;100209.53;1708940;82;20994;-70
2021/06/01 00:28:19;;;;;;;5.67;4.42;;;;;;;9.11;72.64;100200.31;1719211;82;21042;-69
2021/06/01 00:30:45;;;;;;;6.37;4.70;;;;;;;9.13;72.63;100194.92;1711848;82;21089;-69
2021/06/01 00:33:12;;;;;;;7.58;4.58;;;;;;;9.16;72.66;100192.87;1684783;85;20960;-69
2021/06/01 00:35:38;;;;;;;6.97;4.97;;;;;;;9.21;72.73;100195.19;1661290;83;21794;-70
2021/06/01 00:38:05;;;;;;;10.08;5.15;;;;;;;9.24;72.77;100191.47;1655869;85;21572;-69
2021/06/01 00:40:33;;;;;;;5.78;4.37;;;;;;;9.25;72.83;100190.50;1701202;82;21002;-69
2021/06/01 00:43:00;;;;;;;6.35;4.50;;;;;;;9.25;72.84;100190.02;1659458;85;21002;-69
2021/06/01 00:45:27;;;;;;;9.75;4.78;;;;;;;9.24;72.71;100192.78;1701731;82;21528;-69
2021/06/01 00:47:54;;;;;;;7.30;4.95;;;;;;;9.23;72.85;100187.99;1669803;85;21792;-69
2021/06/01 00:50:25;;;;;;;8.70;4.78;;;;;;;9.23;72.89;100194.58;1671958;82;21057;-69
2021/06/01 00:52:52;;;;;;;5.53;4.95;;;;;;;9.23;72.89;100184.04;1710673;82;21039;-69
2021/06/01 00:55:19;;;;;;;10.20;5.45;;;;;;;9.23;72.86;100178.77;1718114;82;21587;-70
2021/06/01 00:57:46;;;;;;;6.10;4.62;;;;;;;9.25;72.93;100186.55;1710223;82;21090;-70
2021/06/01 01:00:29;;;;;;;6.62;4.58;;;;;;;9.26;72.94;100175.05;1662226;83;21772;-70
2021/06/01 01:02:43;;;;;;;9.13;5.05;;;;;;;9.27;72.92;100185.98;1682288;83;20999;-69
2021/06/01 01:05:12;;;;;;;7.12;4.85;;;;;;;9.27;72.89;100185.50;1721653;81;21075;-69
2021/06/01 01:07:46;;;;;;;7.25;5.00;;;;;;;9.31;72.93;100179.02;1685753;85;21020;-70
2021/06/01 01:10:13;;;;;;;7.03;4.95;;;;;;;9.34;72.91;100173.98;1686226;85;20964;-69
2021/06/01 01:12:47;;;;;;;10.75;5.17;;;;;;;9.34;72.84;100172.19;1680282;85;22344;-69
2021/06/01 01:15:14;;;;;;;6.92;4.65;;;;;;;9.37;72.88;100171.97;1707912;82;20946;-70
2021/06/01 01:17:48;;;;;;;6.75;4.28;;;;;;;9.39;72.83;100167.41;1639159;86;20959;-70
2021/06/01 01:20:39;;;;;;;6.55;4.40;;;;;;;9.41;72.72;100173.88;1722649;83;21571;-69
2021/06/01 01:23:11;;;;;;;5.83;4.70;;;;;;;9.37;72.74;100171.12;1702736;83;21087;-69
2021/06/01 01:25:55;;;;;;;6.35;4.80;;;;;;;9.36;72.72;100176.02;1705012;83;21797;-69
2021/06/01 01:28:39;;;;;;;6.58;4.70;;;;;;;9.37;72.77;100169.81;1691661;83;21001;-69
2021/06/01 01:31:11;;;;;;;7.28;4.00;;;;;;;9.39;72.75;100167.89;1695316;82;21102;-69
2021/06/01 01:33:40;;;;;;;6.83;4.72;;;;;;;9.41;72.71;100168.60;1710206;83;21086;-69
2021/06/01 01:36:10;;;;;;;7.28;4.75;;;;;;;9.40;72.67;100167.77;1675653;84;21085;-69
2021/06/01 01:38:39;;;;;;;11.43;4.60;;;;;;;9.39;72.74;100169.20;1688314;83;21767;-69
2021/06/01 01:41:13;;;;;;;6.15;4.30;;;;;;;9.39;72.75;100162.63;1701219;83;21038;-70
2021/06/01 01:43:42;;;;;;;7.12;4.53;;;;;;;9.41;72.81;100173.88;1698161;83;21097;-69
2021/06/01 01:46:14;;;;;;;6.47;4.70;;;;;;;9.41;72.89;100182.63;1699395;83;21659;-69
2021/06/01 01:48:59;;;;;;;6.10;4.17;;;;;;;9.40;72.85;100180.95;1677912;84;20978;-69
2021/06/01 01:51:36;;;;;;;5.50;4.40;;;;;;;9.40;72.91;100177.47;1692677;83;21797;-69
2021/06/01 01:54:09;;;;;;;9.45;4.53;;;;;;;9.39;72.97;100165.26;1693824;83;21623;-69
2021/06/01 01:56:39;;;;;;;5.60;4.15;;;;;;;9.37;72.90;100161.91;1672494;83;21077;-69
2021/06/01 01:59:11;;;;;;;5.25;4.22;;;;;;;9.38;72.93;100159.63;1717249;83;21077;-69
2021/06/01 02:01:38;;;;;;;7.17;4.10;;;;;;;9.40;72.92;100163.81;1699467;83;21030;-69
2021/06/01 02:04:04;;;;;;;5.75;3.90;;;;;;;9.38;73.00;100166.22;1700040;83;22459;-70
2021/06/01 02:06:31;;;;;;;5.87;4.33;;;;;;;9.38;73.00;100168.38;1717136;83;21065;-69
2021/06/01 02:08:58;;;;;;;5.60;4.17;;;;;;;9.35;73.05;100168.59;1719970;83;21069;-69
2021/06/01 02:11:26;;;;;;;5.20;4.65;;;;;;;9.35;73.21;100170.38;1717611;82;21096;-69
2021/06/01 02:13:58;;;;;;;5.83;4.30;;;;;;;9.33;73.26;100166.55;1681522;83;20986;-69
2021/06/01 02:16:25;;;;;;;5.70;4.03;;;;;;;9.33;73.26;100169.67;1699875;83;21798;-69
2021/06/01 02:18:52;;;;;;;7.65;4.47;;;;;;;9.31;73.33;100171.11;1721202;81;20989;-69
2021/06/01 02:21:46;;;;;;;7.12;4.40;;;;;;;9.31;73.45;100172.91;1729307;81;21018;-69
2021/06/01 02:24:11;;;;;;;11.00;5.22;;;;;;;9.33;73.58;100169.67;1660389;85;20973;-69
2021/06/01 02:27:12;;;;;;;9.65;5.50;;;;;;;9.34;73.53;100170.03;1720826;81;21105;-69
2021/06/01 02:30:00;;;;;;;7.92;5.12;;;;;;;9.35;73.62;100167.27;1672476;84;21811;-70
2021/06/01 02:32:45;;;;;;;8.63;4.62;;;;;;;9.36;73.57;100164.16;1702879;83;21614;-70
2021/06/01 02:35:34;;;;;;;6.72;4.30;;;;;;;9.38;73.62;100164.42;1701107;81;20997;-70
2021/06/01 02:38:02;;;;;;;8.70;4.72;;;;;;;9.40;73.56;100165.13;1686991;83;20976;-70
2021/06/01 02:40:29;;;;;;;6.92;5.03;;;;;;;9.38;73.51;100170.17;1670777;83;21054;-72
2021/06/01 02:42:56;;;;;;;7.37;4.90;;;;;;;9.38;73.54;100164.90;1673493;83;22318;-70
2021/06/01 02:45:23;;;;;;;9.55;5.75;;;;;;;9.38;73.60;100162.27;1672255;84;20994;-70
2021/06/01 02:47:51;;;;;;;7.87;5.00;;;;;;;9.38;73.56;100169.69;1699308;82;21006;-70
2021/06/01 02:50:18;;;;;;;5.58;4.53;;;;;;;9.40;73.61;100163.81;1667205;84;21122;-70
2021/06/01 02:52:45;;;;;;;5.75;4.47;;;;;;;9.43;73.61;100163.56;1666332;84;21504;-70
2021/06/01 02:55:16;;;;;;;5.85;4.40;;;;;;;9.43;73.59;100165.36;1684876;84;21748;-71
2021/06/01 02:57:43;;;;;;;5.10;4.17;;;;;;;9.44;73.55;100155.17;1680354;83;20982;-70
2021/06/01 03:00:14;;;;;;;5.67;4.33;;;;;;;9.46;73.59;100157.23;1707610;81;21053;-70
2021/06/01 03:02:42;;;;;;;6.75;4.60;;;;;;;9.48;73.49;100151.84;1666801;84;20995;-70
2021/06/01 03:05:09;;;;;;;6.08;4.03;;;;;;;9.48;73.48;100161.06;1709352;81;21069;-70
2021/06/01 03:07:39;;;;;;;5.92;4.35;;;;;;;9.50;73.48;100162.62;1702996;81;21089;-70
2021/06/01 03:10:10;;;;;;;7.10;3.83;;;;;;;9.49;73.30;100158.30;1668377;84;21553;-70
2021/06/01 03:12:50;;;;;;;7.60;4.22;;;;;;;9.52;73.25;100163.33;1686510;83;21105;-69
2021/06/01 03:15:15;;;;;;;6.83;4.40;;;;;;;9.54;73.23;100154.81;1712275;82;21097;-70
2021/06/01 03:17:42;;;;;;;4.80;4.30;;;;;;;9.58;73.09;100162.02;1695347;82;21018;-69
2021/06/01 03:20:10;;;;;;;4.42;3.75;;;;;;;9.59;73.13;100164.53;1711542;82;21758;-69
2021/06/01 03:22:37;;;;;;;4.80;3.80;;;;;;;9.62;73.08;100160.80;1702217;82;21049;-69
2021/06/01 03:25:05;;;;;;;8.90;3.70;;;;;;;9.63;72.80;100165.13;1703961;81;21061;-69
2021/06/01 03:27:31;;;;;;;4.45;3.30;;;;;;;9.61;72.76;100153.38;1667272;84;20979;-70
2021/06/01 03:29:58;;;;;;;5.20;3.40;;;;;;;9.64;72.69;100151.81;1659752;86;21109;-69
2021/06/01 03:32:24;;;;;;;4.35;2.98;;;;;;;9.64;72.48;100145.22;1714765;82;21778;-69
2021/06/01 03:34:51;;;;;;;5.28;3.45;;;;;;;9.65;72.49;100150.88;1710148;82;20994;-69
2021/06/01 03:37:17;;;;;;;6.45;3.37;;;;;;;9.67;72.44;100150.75;1688978;83;21070;-69
2021/06/01 03:39:44;;;;;;;4.65;3.80;;;;;;;9.65;72.18;100156.15;1696267;82;21380;-70
2021/06/01 03:42:13;;;;;;;5.28;3.55;;;;;;;9.65;72.19;100157.47;1663072;85;20983;-69
2021/06/01 03:44:43;;;;;;;5.30;3.58;;;;;;;9.71;72.13;100150.38;1694019;82;22418;-71
2021/06/01 03:47:10;;;;;;;5.10;3.08;;;;;;;9.73;72.14;100155.03;1703602;82;21005;-69
2021/06/01 03:49:37;;;;;;;3.83;3.15;;;;;;;9.80;72.08;100144.02;1697843;82;21045;-70
2021/06/01 03:52:08;;;;;;;5.65;3.52;;;;;;;9.80;71.96;100145.33;1671749;85;21032;-69
2021/06/01 03:54:36;;;;;;;4.85;3.58;;;;;;;9.81;71.91;100148.32;1664186;83;21532;-70
2021/06/01 03:57:04;;;;;;;4.47;2.92;;;;;;;9.79;72.00;100147.12;1667854;84;21740;-70
2021/06/01 03:59:30;;;;;;;6.03;3.80;;;;;;;9.79;72.04;100141.02;1696350;82;21034;-69
2021/06/01 04:01:57;;;;;;;5.42;3.58;;;;;;;9.77;71.90;100144.27;1679364;85;21000;-69
2021/06/01 04:04:24;;;;;;;4.20;3.45;;;;;;;9.79;72.08;100148.45;1686904;85;21497;-69
2021/06/01 04:06:50;;;;;;;5.47;3.72;;;;;;;9.82;72.10;100150.00;1677253;83;21429;-70
2021/06/01 04:09:18;;;;;;;5.92;3.92;;;;;;;9.84;72.17;100150.70;1702547;82;21618;-69
2021/06/01 04:11:45;;;;;;;5.75;4.12;;;;;;;9.85;71.90;100154.56;1667528;85;21069;-70
2021/06/01 04:14:11;;;;;;;4.33;3.87;;;;;;;9.90;71.93;100157.66;1713261;82;20947;-72
2021/06/01 04:16:38;;;;;;;6.40;4.10;;;;;;;9.95;71.82;100149.39;1695915;83;21770;-71
2021/06/01 04:19:06;;;;;;;6.08;4.00;;;;;;;9.95;71.69;100152.87;1702877;81;21069;-70
2021/06/01 04:21:32;;;;;;;4.50;3.50;;;;;;;9.97;71.54;100145.66;1709185;81;21792;-70
2021/06/01 04:23:59;;;;;;;6.85;4.10;;;;;;;10.01;71.47;100148.87;1724353;81;21129;-70
2021/06/01 04:26:29;;;;;;;6.15;4.55;;;;;;;10.03;71.50;100145.63;1719252;83;21062;-69
2021/06/01 04:28:54;;;;;;;5.92;4.22;;;;;;;10.03;71.33;100142.98;1709746;83;21540;-70
2021/06/01 04:31:20;;;;;;;5.78;4.17;;;;;;;10.02;71.31;100146.11;1712360;82;21519;-70
2021/06/01 04:33:46;;;;;;;6.62;4.35;;;;;;;9.97;70.65;100144.34;1659419;85;22328;-75
2021/06/01 04:36:13;;;;;;;8.05;4.65;;;;;;;9.89;70.82;100152.51;1685439;83;21508;-73
2021/06/01 04:38:39;;;;;;;5.78;4.85;;;;;;;9.85;70.88;100149.77;1668908;85;21044;-71
2021/06/01 04:41:06;;;;;;;7.65;4.28;;;;;;;9.84;71.13;100147.59;1705546;82;21113;-71
2021/06/01 04:43:33;;;;;;;6.60;4.05;;;;;;;9.86;71.39;100150.13;1673059;85;21094;-71
2021/06/01 04:46:00;;;;;;;8.65;4.47;;;;;;;9.89;71.29;100154.66;1638841;86;21743;-71
2021/06/01 04:48:26;;;;;;;5.33;3.70;;;;;;;9.90;70.97;100147.11;1710351;82;21101;-71
2021/06/01 04:50:53;;;;;;;6.28;4.15;;;;;;;9.91;71.03;100140.87;1702933;82;21635;-71
2021/06/01 04:53:19;;;;;;;6.33;4.10;;;;;;;9.91;70.88;100146.63;1695017;83;21722;-70
2021/06/01 04:55:46;;;;;;;5.17;4.05;;;;;;;9.91;70.83;100152.73;1658696;85;21054;-72
2021/06/01 04:58:13;;;;;;;8.08;4.30;;;;;;;9.95;70.84;100153.34;1684543;84;21755;-72
2021/06/01 05:00:39;;;;;;;4.67;4.10;;;;;;;9.98;70.69;100164.48;1684965;83;21086;-71
2021/06/01 05:03:06;;;;;;;5.25;3.40;;;;;;;10.03;70.84;100154.38;1693352;83;21041;-72
2021/06/01 05:05:33;;;;;;;6.70;3.52;;;;;;;10.12;70.70;100155.92;1713920;83;21555;-72
2021/06/01 05:08:00;;;;;;;4.83;3.20;;;;;;;10.17;70.42;100151.12;1690225;84;21034;-70
2021/06/01 05:10:26;;;;;;;4.50;3.20;;;;;;;10.21;70.14;100153.86;1690420;83;21752;-73
2021/06/01 05:12:52;;;;;;;3.70;3.05;;;;;;;10.24;70.06;100151.86;1699691;83;20994;-70
2021/06/01 05:15:19;;;;;;;4.45;2.92;;;;;;;10.28;69.57;100155.91;1690283;84;21062;-70
2021/06/01 05:17:46;;;;;;;7.00;2.92;;;;;;;10.31;69.46;100165.38;1712236;81;21065;-71
2021/06/01 05:20:13;;;;;;;3.65;3.17;;;;;;;10.33;69.28;100168.75;1742995;80;21096;-72
2021/06/01 05:22:40;;;;;;;5.50;2.85;;;;;;;10.38;68.62;100174.97;1752696;80;22360;-71
2021/06/01 05:25:09;;;;;;;4.00;2.77;;;;;;;10.39;68.71;100176.16;1713817;81;21574;-70
2021/06/01 05:27:35;;;;;;;3.67;2.80;;;;;;;10.47;68.88;100172.41;1687528;83;21055;-70
2021/06/01 05:30:04;;;;;;;3.50;2.60;;;;;;;10.55;68.39;100173.11;1686550;85;21050;-70
2021/06/01 05:35:27;;;;;;;3.85;2.40;;;;;;;10.68;68.00;100165.00;1710997;83;21786;-72
2021/06/01 05:37:52;;;;;;;4.60;2.22;;;;;;;10.77;67.49;100166.39;1711668;82;20985;-72
2021/06/01 05:40:20;;;;;;;3.00;1.90;;;;;;;10.85;66.72;100165.75;1712010;82;21048;-70
2021/06/01 05:42:47;;;;;;;2.98;2.10;;;;;;;10.89;66.80;100167.99;1713596;82;21072;-72
2021/06/01 05:45:13;;;;;;;3.50;1.98;;;;;;;10.96;66.40;100169.65;1738405;82;21060;-72
2021/06/01 05:47:40;;;;;;;4.60;1.87;;;;;;;11.01;65.92;100173.24;1722422;80;21735;-70
2021/06/01 05:50:07;;;;;;;3.00;1.70;;;;;;;11.04;65.41;100160.59;1740418;82;21037;-72
2021/06/01 05:52:35;;;;;;;2.90;1.70;;;;;;;11.04;65.38;100153.98;1737844;82;20942;-71
2021/06/01 05:55:04;;;;;;;2.67;1.77;;;;;;;11.08;65.50;100155.39;1719687;82;20961;-71
2021/06/01 05:57:30;;;;;;;4.70;1.65;;;;;;;11.21;65.65;100147.75;1711135;82;20982;-72
2021/06/01 05:59:57;;;;;;;3.35;1.82;;;;;;;11.28;65.04;100155.01;1711026;83;22150;-71
2021/06/01 06:02:23;;;;;;;3.52;1.70;;;;;;;11.30;64.27;100153.58;1713105;82;21032;-72
2021/06/01 06:04:49;;;;;;;2.10;1.65;;;;;;;11.32;64.22;100153.80;1692745;83;21033;-71
2021/06/01 06:07:16;;;;;;;2.37;1.50;;;;;;;11.37;64.19;100152.89;1692295;83;21060;-72
2021/06/01 06:09:43;;;;;;;1.98;1.30;;;;;;;11.40;63.34;100147.36;1711006;83;20961;-71
2021/06/01 06:12:10;;;;;;;3.10;1.50;;;;;;;11.47;63.88;100156.42;1733561;82;22486;-72
2021/06/01 06:14:37;;;;;;;1.77;1.37;;;;;;;11.57;63.19;100160.91;1718533;82;21005;-70
2021/06/01 06:17:10;;;;;;;6.28;1.27;;;;;;;11.57;62.82;100157.78;1713178;82;20957;-71
2021/06/01 06:19:42;;;;;;;4.30;1.37;;;;;;;11.61;62.80;100167.14;1713909;82;21099;-71
2021/06/01 06:22:05;;;;;;;1.95;1.17;;;;;;;11.66;62.01;100169.37;1710364;83;20949;-71
2021/06/01 06:24:32;;;;;;;1.75;1.00;;;;;;;11.68;61.63;100174.07;1711946;82;21900;-71
2021/06/01 06:26:59;;;;;;;1.12;1.00;;;;;;;11.69;61.40;100170.45;1710918;82;21092;-71
2021/06/01 06:29:25;;;;;;;2.75;1.32;;;;;;;11.63;60.88;100173.13;1736328;82;20982;-71
2021/06/01 06:31:51;;;;;;;3.17;1.30;;;;;;;11.52;61.09;100169.75;1715445;80;21080;-72
2021/06/01 06:34:18;;;;;;;3.42;1.32;;;;;;;11.42;61.69;100155.16;1721515;82;21000;-71
2021/06/01 06:36:44;;;;;;;2.80;1.37;;;;;;;11.37;61.98;100165.28;1710959;83;21776;-71
2021/06/01 06:39:10;;;;;;;4.78;1.50;;;;;;;11.34;62.07;100160.27;1738933;82;20946;-71
2021/06/01 06:41:37;;;;;;;2.60;1.50;;;;;;;11.33;62.22;100159.43;1740492;82;21033;-71
2021/06/01 06:44:07;;;;;;;3.20;1.40;;;;;;;11.32;62.46;100164.38;1716899;82;20973;-71
2021/06/01 06:46:38;;;;;;;1.92;1.40;;;;;;;11.34;62.95;100162.42;1715876;82;21676;-72
2021/06/01 06:49:02;;;;;;;1.75;1.42;;;;;;;11.45;62.57;100163.66;1694969;82;22512;-72
2021/06/01 06:51:29;;;;;;;2.00;1.45;;;;;;;11.54;62.40;100170.45;1739657;82;21014;-71
2021/06/01 06:53:56;;;;;;;2.35;1.62;;;;;;;11.62;61.99;100164.02;1723662;82;21012;-71
2021/06/01 06:56:29;;;;;;;2.55;1.60;;;;;;;11.63;61.50;100159.06;1698778;82;21066;-71
2021/06/01 06:58:58;;;;;;;4.37;1.70;;;;;;;11.57;61.66;100160.91;1720192;81;21506;-71
2021/06/01 07:01:27;;;;;;;5.47;1.60;;;;;;;11.54;61.92;100166.48;1713460;81;21750;-72
2021/06/01 07:03:55;;;;;;;4.35;1.90;;;;;;;11.56;61.94;100165.85;1739636;82;20957;-72
2021/06/01 07:06:22;;;;;;;1.95;1.47;;;;;;;11.67;61.84;100170.55;1730095;82;21060;-71
2021/06/01 07:08:50;;;;;;;2.77;1.47;;;;;;;11.72;61.34;100171.01;1727831;82;20934;-71
2021/06/01 07:11:18;;;;;;;7.30;1.40;;;;;;;11.79;61.32;100167.84;1710954;83;21057;-71
2021/06/01 07:13:58;;;;;;;1.57;1.40;;;;;;;11.83;61.00;100170.58;1711342;82;21574;-71
2021/06/01 07:16:26;;;;;;;1.42;1.30;;;;;;;11.88;61.23;100175.84;1723589;82;21076;-71
2021/06/01 07:18:52;;;;;;;2.40;1.50;;;;;;;11.92;61.30;100166.64;1716929;82;21041;-72
2021/06/01 07:21:19;;;;;;;4.20;1.60;;;;;;;11.92;61.06;100169.29;1711883;83;21026;-71
2021/06/01 07:23:45;;;;;;;4.40;1.67;;;;;;;11.91;61.26;100166.30;1693328;83;21102;-72
2021/06/01 07:26:11;;;;;;;5.65;1.70;;;;;;;11.91;60.10;100160.16;1719178;83;21751;-71
2021/06/01 07:28:40;;;;;;;5.28;1.52;;;;;;;11.79;60.26;100162.05;1715443;82;21057;-72
2021/06/01 07:31:07;;;;;;;1.60;1.47;;;;;;;11.76;60.38;100160.98;1697755;82;21117;-71
2021/06/01 07:33:34;;;;;;;2.65;1.30;;;;;;;11.74;60.25;100169.06;1713370;83;21635;-72
2021/06/01 07:36:00;;;;;;;5.58;1.60;;;;;;;11.74;60.47;100167.73;1707695;83;21500;-71
2021/06/01 07:38:28;;;;;;;2.30;1.60;;;;;;;11.74;60.44;100169.55;1703452;83;22282;-71
2021/06/01 07:40:56;;;;;;;4.37;1.50;;;;;;;11.70;60.10;100162.86;1682012;83;20979;-71
2021/06/01 07:43:23;;;;;;;5.05;1.50;;;;;;;11.70;60.51;100158.89;1708368;83;21010;-71
2021/06/01 07:45:49;;;;;;;3.10;1.50;;;;;;;11.78;60.62;100167.48;1713347;82;21069;-72
2021/06/01 07:48:16;;;;;;;4.40;1.37;;;;;;;11.84;60.38;100161.67;1681981;84;21159;-72
2021/06/01 07:50:42;;;;;;;3.25;1.60;;;;;;;11.88;60.56;100157.80;1710746;83;21743;-71
2021/06/01 07:53:08;;;;;;;2.00;1.70;;;;;;;11.89;60.39;100155.50;1713532;82;21057;-71
2021/06/01 07:55:35;;;;;;;3.17;1.50;;;;;;;11.91;60.33;100159.67;1703037;82;20978;-71
2021/06/01 07:58:02;;;;;;;2.65;1.57;;;;;;;11.96;59.86;100160.09;1670387;84;21095;-70
2021/06/01 08:00:28;;;;;;;5.40;1.60;;;;;;;11.97;59.54;100147.23;1704183;83;21058;-69
2021/06/01 08:02:55;;;;;;;2.85;1.40;;;;;;;12.00;59.52;100158.03;1697661;84;21772;-69
2021/06/01 08:05:22;;;;;;;3.05;1.60;;;;;;;12.02;59.49;100158.23;1698150;83;21041;-71
2021/06/01 08:07:50;;;;;;;3.83;1.80;;;;;;;12.06;59.36;100144.72;1673090;84;21514;-71
2021/06/01 08:10:20;;;;;;;3.10;1.40;;;;;;;12.12;59.35;100146.83;1702070;81;21066;-71
2021/06/01 08:12:46;;;;;;;2.87;1.60;;;;;;;12.07;58.65;100149.90;1666486;84;21090;-74
2021/06/01 08:15:14;;;;;;;5.60;1.60;;;;;;;12.07;59.04;100147.25;1710995;83;22340;-75
2021/06/01 08:17:41;;;;;;;3.40;1.70;;;;;;;12.07;59.13;100150.39;1704248;82;21140;-71
2021/06/01 08:20:26;;;;;;;2.77;1.40;;;;;;;12.10;59.42;100151.43;1709514;81;21532;-72
2021/06/01 08:22:45;;;;;;;3.55;1.50;;;;;;;12.13;58.77;100152.47;1723578;81;21013;-73
2021/06/01 08:25:12;;;;;;;6.62;1.80;;;;;;;12.14;58.86;100150.17;1695547;83;21520;-73
2021/06/01 08:27:38;;;;;;;4.72;2.52;;;;;;;12.19;59.19;100154.58;1720139;82;22515;-73
2021/06/01 08:30:07;;;;;;;2.20;1.72;;;;;;;12.21;58.84;100142.88;1738438;82;20956;-72
2021/06/01 08:32:33;;;;;;;2.45;1.70;;;;;;;12.24;59.26;100144.39;1725617;82;20965;-73
2021/06/01 08:35:00;;;;;;;4.05;1.70;;;;;;;12.30;59.01;100147.83;1711530;82;21056;-72
2021/06/01 08:37:27;;;;;;;4.22;2.17;;;;;;;12.38;59.31;100148.47;1716324;82;21357;-73
2021/06/01 08:39:53;;;;;;;3.45;1.57;;;;;;;12.49;58.32;100149.16;1726620;82;21848;-72
2021/06/01 08:42:19;;;;;;;4.05;2.15;;;;;;;12.50;58.17;100149.99;1733116;82;21061;-72
2021/06/01 08:44:50;;;;;;;3.47;1.90;;;;;;;12.48;58.28;100153.28;1708321;82;21549;-72
2021/06/01 08:47:19;;;;;;;3.67;1.62;;;;;;;12.47;58.35;100149.80;1727099;82;21052;-74
2021/06/01 08:49:47;;;;;;;6.95;2.70;;;;;;;12.45;58.18;100138.51;1724300;82;21072;-72
2021/06/01 08:52:15;;;;;;;6.45;3.30;;;;;;;12.42;58.10;100148.52;1717699;82;22384;-72
2021/06/01 08:54:45;;;;;;;4.47;2.27;;;;;;;12.39;58.37;100155.43;1726610;81;21465;-74
2021/06/01 08:57:11;;;;;;;6.25;3.05;;;;;;;12.37;58.05;100150.28;1719241;82;21021;-74
2021/06/01 08:59:41;;;;;;;4.62;2.60;;;;;;;12.33;57.92;100150.19;1734140;82;21033;-73
2021/06/01 09:02:06;;;;;;;8.05;2.92;;;;;;;12.33;58.26;100148.86;1724274;82;21076;-72
2021/06/01 09:04:58;;;;;;;6.62;2.20;;;;;;;12.38;58.52;100153.27;1731262;82;22280;-73
2021/06/01 09:08:09;;;;;;;2.60;1.92;;;;;;;12.41;58.39;100151.66;1728810;82;21661;-72
2021/06/01 09:10:22;;;;;;;5.70;2.10;;;;;;;12.41;57.67;100157.45;1680382;83;20992;-71
2021/06/01 09:12:58;;;;;;;4.33;2.10;;;;;;;12.35;57.01;100145.58;1733515;82;21009;-71
2021/06/01 09:15:38;;;;;;;4.65;2.20;;;;;;;12.30;57.34;100149.15;1702623;82;20966;-73
2021/06/01 09:21:05;;;;;;;14.20;8.50;;;;;;;12.33;58.09;100155.48;1731750;82;21067;-71
2021/06/01 09:23:24;;;;;;;8.60;5.10;;;;;;;12.35;57.92;100153.53;1722544;82;21041;-71
2021/06/01 09:25:58;;;;;;;5.28;3.92;;;;;;;12.49;58.16;100148.33;1713428;82;21124;-72
2021/06/01 09:28:19;;;;;;;5.60;3.70;;;;;;;12.61;57.82;100157.30;1720481;82;21009;-73
2021/06/01 09:30:54;;;;;;;3.67;2.22;;;;;;;12.73;57.39;100148.72;1716439;83;21784;-74
2021/06/01 09:33:25;;;;;;;3.50;2.20;;;;;;;12.80;56.76;100152.97;1678688;84;21051;-75
2021/06/01 09:36:04;;;;;;;2.70;1.90;;;;;;;12.84;56.50;100147.75;1710188;83;20991;-74
2021/06/01 09:38:41;;;;;;;3.12;2.10;;;;;;;12.89;56.35;100142.84;1724666;81;21020;-73
2021/06/01 09:41:13;;;;;;;5.83;2.20;;;;;;;12.94;56.07;100147.25;1717699;81;21085;-73
2021/06/01 09:44:06;;;;;;;7.58;2.10;;;;;;;13.00;56.19;100147.98;1685197;83;21895;-74
2021/06/01 09:46:40;;;;;;;6.30;2.30;;;;;;;13.10;56.31;100143.98;1706207;83;21026;-72
2021/06/01 09:49:18;;;;;;;4.33;2.02;;;;;;;13.21;56.44;100143.00;1671692;84;21095;-71
2021/06/01 09:51:56;;;;;;;3.58;1.90;;;;;;;13.31;55.46;100145.97;1699427;83;21070;-70
2021/06/01 09:54:39;;;;;;;10.38;2.10;;;;;;;13.30;54.38;100143.47;1716726;83;20998;-71
2021/06/01 09:57:25;;;;;;;5.22;2.10;;;;;;;13.35;54.34;100142.06;1709983;83;21581;-70
2021/06/01 10:00:15;;;;;;;3.75;1.80;;;;;;;13.41;54.54;100138.84;1710639;81;21496;-74
2021/06/01 10:02:43;;;;;;;5.55;2.10;;;;;;;13.49;53.65;100138.58;1709362;81;20989;-71
2021/06/01 10:05:18;;;;;;;5.30;2.10;;;;;;;13.47;53.54;100141.38;1715040;83;21057;-69
2021/06/01 10:07:44;;;;;;;3.98;2.70;;;;;;;13.45;53.92;100134.90;1692912;83;21134;-72
2021/06/01 10:10:18;;;;;;;5.40;2.30;;;;;;;13.50;54.25;100133.61;1702303;83;21760;-70
2021/06/01 10:12:49;;;;;;;4.67;2.65;;;;;;;13.52;54.10;100134.33;1723250;83;21493;-71
2021/06/01 10:15:18;;;;;;;3.50;2.05;;;;;;;13.56;53.76;100139.18;1674687;84;21380;-75
2021/06/01 10:17:45;;;;;;;4.25;2.20;;;;;;;13.64;53.79;100133.14;1710384;81;21065;-72
2021/06/01 10:20:12;;;;;;;4.37;1.95;;;;;;;13.71;53.15;100132.41;1726139;83;21033;-72
2021/06/01 10:22:39;;;;;;;3.67;2.00;;;;;;;13.75;53.38;100127.14;1714093;81;21653;-71
2021/06/01 10:25:07;;;;;;;3.25;2.00;;;;;;;13.84;53.78;100123.25;1660360;85;21066;-70
2021/06/01 10:27:34;;;;;;;3.62;1.75;;;;;;;13.97;53.81;100117.08;1660713;85;20970;-70
2021/06/01 10:30:01;;;;;;;4.03;2.20;;;;;;;14.08;53.46;100120.02;1687104;83;21631;-70
2021/06/01 10:32:28;;;;;;;4.60;2.87;;;;;;;14.09;52.98;100111.05;1721498;83;21057;-70
2021/06/01 10:34:56;;;;;;;5.53;2.17;;;;;;;14.00;53.32;100114.98;1675350;85;21783;-71
2021/06/01 10:44:17;;;;;;;9.23;6.90;;;;;;;14.04;52.97;100115.51;1700723;82;21065;-70
2021/06/01 10:52:01;;;;;;;5.12;1.87;;;;;;;14.22;52.78;100104.90;1703362;82;21010;-72
2021/06/01 10:54:47;;;;;;;3.08;1.87;;;;;;;14.29;52.46;100101.98;1662519;85;21497;-71
2021/06/01 10:57:17;;;;;;;6.22;1.82;;;;;;;14.37;53.01;100097.21;1702001;83;20994;-71
2021/06/01 11:02:20;;;;;;;8.70;3.42;;;;;;;14.56;52.28;100094.41;1664512;85;22039;-72
2021/06/01 11:05:12;;;;;;;6.40;2.05;;;;;;;14.67;52.23;100098.19;1697467;83;21081;-72
2021/06/01 11:07:57;;;;;;;3.05;1.90;;;;;;;14.75;52.10;100095.55;1664464;84;21044;-71
2021/06/01 11:10:46;;;;;;;4.97;2.00;;;;;;;14.81;51.54;100096.28;1700932;83;21077;-71
2021/06/01 11:13:26;;;;;;;5.33;1.55;;;;;;;14.77;50.73;100090.11;1664572;85;21004;-72
2021/06/01 11:15:58;;;;;;;7.53;2.20;;;;;;;14.66;50.61;100097.81;1700512;82;21065;-72
2021/06/01 11:18:32;;;;;;;3.15;2.00;;;;;;;14.65;50.75;100087.34;1667304;84;21098;-72
2021/06/01 11:21:16;;;;;;;3.92;2.12;;;;;;;14.64;51.28;100098.47;1682907;83;21062;-71
2021/06/01 11:24:13;;;;;;;5.28;1.90;;;;;;;14.68;51.52;100093.70;1655557;84;21050;-75
2021/06/01 11:35:25;;;;;;;6.55;4.10;;;;;;;14.50;50.40;100088.41;1653977;85;21208;-74
2021/06/01 11:38:02;;;;;;;8.93;4.15;;;;;;;14.43;50.55;100085.48;1702125;81;21417;-75
2021/06/01 11:43:11;;;;;;;5.87;3.95;;;;;;;14.36;51.36;100088.91;1656159;86;22443;-73
2021/06/01 11:46:06;;;;;;;3.45;2.00;;;;;;;14.41;51.83;100079.50;1714453;83;21090;-72
2021/06/01 11:51:29;;;;;;;3.80;2.22;;;;;;;14.42;50.71;100086.48;1674476;85;21018;-73
2021/06/01 11:54:09;;;;;;;5.50;1.90;;;;;;;14.42;51.09;100084.31;1637676;86;21501;-73
2021/06/01 11:57:04;;;;;;;5.42;2.00;;;;;;;14.45;51.34;100086.69;1710985;83;21742;-73
2021/06/01 12:18:40;;;;;;;3.50;1.82;;;;;;;14.42;51.28;100081.16;1704459;82;21093;-78
2021/06/01 12:21:17;;;;;;;3.20;1.92;;;;;;;14.46;51.40;100083.04;1705667;82;21723;-75
2021/06/01 12:23:50;;;;;;;2.30;1.60;;;;;;;14.52;51.33;100089.08;1654520;84;23128;-76
2021/06/01 12:32:18;;;;;;;6.90;2.10;;;;;;;14.43;50.25;100083.33;1644780;84;21039;-75
2021/06/01 12:43:46;;;;;;;4.50;2.10;;;;;;;14.63;50.18;100080.02;1726910;81;21557;-71
2021/06/01 13:20:33;;;;;;;4.37;2.37;;;;;;;14.53;50.76;100080.11;1709215;82;20998;-73
2021/06/01 13:32:09;;;;;;;5.90;2.70;;;;;;;14.41;50.32;100082.16;1687643;82;21019;-74
2021/06/01 13:39:59;;;;;;;7.55;3.33;;;;;;;14.47;49.61;100072.75;1665903;85;21064;-70